Terminal Aerodrome Forecast
Issued by NWS

Home | Current Version | Previous Version | Text Only | Print | Product List | Glossary On
Versions: 1 2 3 4 5 6 7 8 9 10 11 12 13 14 15 16 17 18 19
000
FTUS46 KSTO 250400 AAB
TAFSMF
TAF AMD
KSMF 250414Z 2504/2524 19007KT 2SM BR OVC003
      TEMPO 2504/2506 1/2SM FG OVC002
     FM250700 00000KT 1/4SM FG VV001
     FM251800 VRB02KT 1SM BR BCFG BKN003
     FM252000 VRB02KT 5SM HZ SKC=

USA.gov is the U.S. government's official web portal to all federal, state and local government web resources and services.